Time;durP1;ratioP1;P1;durP2;ratioP2;P2;SDS_P1;SDS_P2;PMS_P1;PMS_P2;Temp;Humidity;BMP_temperature;BMP_pressure;BME280_temperature;BME280_humidity;BME280_pressure;Samples;Min_cycle;Max_cycle;Signal;HPM_P1;HPM_P2
2022/06/16 00:00:06;;;;;;;0.40;0.40;;;17.00;99.90;;;;;;5115694;28;20395;-70
2022/06/16 00:02:32;;;;;;;0.30;0.30;;;17.00;99.90;;;;;;5115549;28;20402;-70
2022/06/16 00:04:57;;;;;;;0.40;0.40;;;17.00;99.90;;;;;;5115594;28;20513;-70
2022/06/16 00:07:23;;;;;;;0.30;0.30;;;17.00;99.90;;;;;;5115797;28;20164;-69
2022/06/16 00:09:49;;;;;;;0.50;0.50;;;17.10;99.90;;;;;;5115719;28;20172;-70
2022/06/16 00:12:15;;;;;;;0.30;0.30;;;17.10;99.90;;;;;;5115508;28;20221;-70
2022/06/16 00:14:41;;;;;;;0.30;0.30;;;17.10;99.90;;;;;;5115342;28;20531;-70
2022/06/16 00:17:07;;;;;;;0.30;0.30;;;17.20;99.90;;;;;;5115369;28;20401;-69
2022/06/16 00:19:33;;;;;;;0.60;0.60;;;17.20;99.90;;;;;;5115449;28;20894;-70
2022/06/16 00:21:59;;;;;;;0.30;0.30;;;17.10;99.90;;;;;;5115434;28;20175;-69
2022/06/16 00:24:27;;;;;;;0.30;0.30;;;17.10;99.90;;;;;;5115458;28;20433;-69
2022/06/16 00:26:55;;;;;;;1.03;1.03;;;17.10;99.90;;;;;;5115179;28;20794;-70
2022/06/16 00:29:21;;;;;;;0.30;0.30;;;17.00;99.90;;;;;;5115180;28;20386;-70
2022/06/16 00:31:47;;;;;;;0.30;0.30;;;17.00;99.90;;;;;;5115068;28;20402;-70
2022/06/16 00:34:13;;;;;;;0.30;0.30;;;17.00;99.90;;;;;;5114793;28;20767;-70
2022/06/16 00:36:39;;;;;;;0.30;0.30;;;17.00;99.90;;;;;;5115279;28;20172;-70
2022/06/16 00:39:04;;;;;;;0.40;0.40;;;17.10;99.90;;;;;;5115155;28;20448;-70
2022/06/16 00:41:30;;;;;;;0.50;0.50;;;17.20;99.60;;;;;;5115066;28;20217;-69
2022/06/16 00:44:01;;;;;;;0.30;0.30;;;17.30;99.30;;;;;;5114842;28;20594;-70
2022/06/16 00:46:29;;;;;;;0.30;0.30;;;17.30;99.10;;;;;;5114971;28;20172;-70
2022/06/16 00:49:07;;;;;;;0.30;0.30;;;17.30;99.70;;;;;;5114911;28;20410;-70
2022/06/16 00:51:34;;;;;;;0.30;0.30;;;17.30;99.90;;;;;;5113722;28;20409;-70
2022/06/16 00:54:28;;;;;;;0.30;0.30;;;17.20;99.70;;;;;;5113319;28;20969;-70
2022/06/16 00:56:57;;;;;;;0.40;0.40;;;17.10;99.90;;;;;;5110615;28;20766;-71
2022/06/16 00:59:23;;;;;;;0.50;0.50;;;17.20;99.90;;;;;;5115011;28;20755;-70
2022/06/16 01:01:49;;;;;;;0.30;0.30;;;17.10;99.90;;;;;;5114783;28;20390;-69
2022/06/16 01:07:03;;;;;;;0.50;0.50;;;16.90;99.90;;;;;;5114799;28;20894;-69
2022/06/16 01:09:32;;;;;;;0.30;0.30;;;17.00;99.90;;;;;;5114503;28;20405;-70
2022/06/16 01:15:20;;;;;;;0.30;0.30;;;16.90;99.90;;;;;;5114489;28;20452;-71
2022/06/16 01:18:19;;;;;;;0.40;0.40;;;17.00;99.90;;;;;;5114427;28;20461;-70
2022/06/16 01:20:48;;;;;;;0.60;0.60;;;16.90;99.90;;;;;;5114503;28;20394;-70
2022/06/16 01:23:50;;;;;;;0.33;0.33;;;16.80;99.90;;;;;;5113928;28;20490;-69
2022/06/16 01:26:49;;;;;;;0.37;0.37;;;16.70;99.90;;;;;;5114451;28;20402;-70
2022/06/16 01:29:20;;;;;;;0.40;0.40;;;16.60;99.90;;;;;;5114038;28;20436;-70
2022/06/16 01:32:13;;;;;;;0.30;0.30;;;16.70;99.90;;;;;;5114345;28;20500;-69
2022/06/16 01:34:52;;;;;;;0.40;0.40;;;16.80;99.90;;;;;;5114012;28;20450;-70
2022/06/16 01:37:32;;;;;;;0.30;0.30;;;16.90;99.90;;;;;;5114216;28;20412;-70
2022/06/16 01:40:18;;;;;;;0.50;0.50;;;17.00;99.90;;;;;;5114470;28;20405;-69
2022/06/16 01:42:59;;;;;;;0.30;0.30;;;17.20;99.90;;;;;;5113836;28;20445;-69
2022/06/16 01:45:34;;;;;;;0.40;0.40;;;17.20;99.90;;;;;;5114020;28;20465;-70
2022/06/16 01:48:01;;;;;;;0.30;0.30;;;17.30;99.90;;;;;;5114063;28;20408;-70
2022/06/16 01:50:40;;;;;;;0.43;0.43;;;17.50;99.90;;;;;;5114116;28;20406;-71
2022/06/16 01:53:11;;;;;;;0.30;0.30;;;17.40;99.90;;;;;;5113962;28;20889;-69
2022/06/16 01:55:45;;;;;;;0.53;0.53;;;17.30;99.90;;;;;;5113957;28;20430;-70
2022/06/16 01:58:19;;;;;;;0.40;0.40;;;17.30;99.90;;;;;;5114117;28;20398;-70
2022/06/16 02:00:46;;;;;;;0.40;0.40;;;17.20;99.90;;;;;;5114517;28;20490;-70
2022/06/16 02:03:29;;;;;;;0.30;0.30;;;17.30;99.90;;;;;;5113546;28;20509;-69
2022/06/16 02:06:01;;;;;;;0.57;0.57;;;17.20;99.90;;;;;;5113805;28;20439;-70
2022/06/16 02:08:34;;;;;;;0.50;0.50;;;17.10;99.90;;;;;;5113972;28;20890;-70
2022/06/16 02:11:05;;;;;;;0.30;0.30;;;17.10;99.90;;;;;;5113865;28;20454;-70
2022/06/16 02:13:35;;;;;;;0.30;0.30;;;17.10;99.90;;;;;;5113751;28;20465;-71
2022/06/16 02:16:13;;;;;;;0.93;0.83;;;17.00;99.90;;;;;;5113665;28;20453;-70
2022/06/16 02:18:41;;;;;;;0.30;0.30;;;17.00;99.90;;;;;;5113885;28;20915;-70
2022/06/16 02:21:42;;;;;;;0.30;0.30;;;17.00;99.90;;;;;;5113798;28;20394;-70
2022/06/16 02:24:13;;;;;;;0.30;0.30;;;17.00;99.90;;;;;;5113276;28;20486;-69
2022/06/16 02:26:39;;;;;;;0.40;0.40;;;17.10;99.90;;;;;;5113571;28;20398;-69
2022/06/16 02:29:38;;;;;;;0.30;0.30;;;17.10;99.90;;;;;;5113531;28;20490;-69
2022/06/16 02:32:39;;;;;;;0.30;0.30;;;17.10;99.90;;;;;;5078934;28;20776;-69
2022/06/16 02:35:42;;;;;;;0.40;0.40;;;17.10;99.90;;;;;;5113449;28;20446;-70
2022/06/16 02:38:49;;;;;;;0.30;0.30;;;17.00;99.90;;;;;;5113605;28;20402;-69
2022/06/16 02:41:38;;;;;;;0.30;0.30;;;16.90;99.90;;;;;;5108794;28;20425;-70
2022/06/16 02:44:08;;;;;;;0.30;0.30;;;17.00;99.90;;;;;;5111229;28;20933;-70
2022/06/16 02:46:47;;;;;;;1.07;1.07;;;17.20;99.90;;;;;;5117460;28;20913;-70
2022/06/16 02:49:33;;;;;;;0.30;0.30;;;17.20;99.90;;;;;;5117373;28;20406;-70
2022/06/16 02:52:27;;;;;;;0.30;0.30;;;17.10;99.90;;;;;;5117267;28;20398;-70
2022/06/16 02:55:05;;;;;;;0.40;0.40;;;17.10;99.90;;;;;;5117170;28;20453;-70
2022/06/16 02:57:48;;;;;;;1.10;1.07;;;17.10;99.90;;;;;;5117108;28;20484;-70
2022/06/16 03:00:19;;;;;;;0.30;0.30;;;17.10;99.90;;;;;;5117244;28;20783;-71
2022/06/16 03:02:45;;;;;;;0.40;0.40;;;17.20;99.90;;;;;;5116924;28;20398;-70
2022/06/16 03:05:13;;;;;;;0.30;0.30;;;17.10;99.90;;;;;;5116661;28;20789;-71
2022/06/16 03:07:41;;;;;;;0.30;0.30;;;17.10;99.90;;;;;;5116851;28;20172;-69
2022/06/16 03:10:07;;;;;;;0.30;0.30;;;17.00;99.90;;;;;;5116851;27;20403;-69
2022/06/16 03:12:33;;;;;;;0.30;0.30;;;17.00;99.90;;;;;;5116555;28;20402;-70
2022/06/16 03:14:59;;;;;;;0.30;0.30;;;17.10;99.90;;;;;;5116505;28;20457;-70
2022/06/16 03:17:24;;;;;;;0.50;0.50;;;17.00;99.90;;;;;;5116846;28;20380;-70
2022/06/16 03:19:50;;;;;;;0.30;0.30;;;17.00;99.90;;;;;;5116782;28;20167;-70
2022/06/16 03:22:18;;;;;;;0.30;0.30;;;17.00;99.90;;;;;;5114977;28;20233;-70
2022/06/16 03:24:44;;;;;;;0.30;0.30;;;17.10;99.90;;;;;;5116434;28;20184;-70
2022/06/16 03:27:11;;;;;;;0.30;0.30;;;17.10;99.90;;;;;;5116850;28;20479;-69
2022/06/16 03:29:36;;;;;;;0.30;0.30;;;17.10;99.90;;;;;;5116555;28;20409;-70
2022/06/16 03:32:02;;;;;;;0.30;0.30;;;17.30;99.90;;;;;;5116175;28;20402;-70
2022/06/16 03:34:28;;;;;;;0.30;0.30;;;17.30;99.90;;;;;;5116170;28;20676;-69
2022/06/16 03:36:54;;;;;;;0.30;0.30;;;17.20;99.90;;;;;;5116461;28;20399;-70
2022/06/16 03:39:20;;;;;;;0.40;0.40;;;17.20;99.90;;;;;;5116315;28;20429;-70
2022/06/16 03:41:45;;;;;;;0.40;0.40;;;17.30;99.90;;;;;;5116106;28;20632;-70
2022/06/16 03:44:11;;;;;;;0.30;0.30;;;17.40;99.90;;;;;;5116120;28;20245;-71
2022/06/16 03:46:37;;;;;;;0.40;0.40;;;17.40;99.90;;;;;;5116041;28;20222;-70
2022/06/16 03:49:04;;;;;;;0.40;0.40;;;17.50;99.90;;;;;;5116123;28;20478;-70
2022/06/16 03:51:30;;;;;;;0.40;0.40;;;17.50;99.90;;;;;;5116045;28;20429;-70
2022/06/16 03:53:56;;;;;;;0.63;0.63;;;17.50;99.90;;;;;;5115090;28;20809;-69
2022/06/16 03:56:22;;;;;;;0.30;0.30;;;17.60;99.90;;;;;;5116066;28;20583;-69
2022/06/16 03:58:52;;;;;;;0.30;0.30;;;17.70;99.90;;;;;;5116016;28;20582;-70
2022/06/16 04:01:19;;;;;;;0.47;0.47;;;17.70;99.90;;;;;;5115958;28;20430;-71
2022/06/16 04:03:59;;;;;;;0.30;0.30;;;17.70;99.90;;;;;;5116214;28;20442;-70
2022/06/16 04:06:33;;;;;;;0.30;0.30;;;17.80;99.90;;;;;;5115932;28;20394;-70
2022/06/16 04:08:59;;;;;;;0.60;0.60;;;17.90;99.90;;;;;;5115671;28;20455;-69
2022/06/16 04:11:28;;;;;;;0.30;0.30;;;18.00;99.90;;;;;;5115995;28;20929;-70
2022/06/16 04:13:57;;;;;;;0.30;0.30;;;18.00;99.90;;;;;;5115278;28;20954;-70
2022/06/16 04:16:23;;;;;;;1.17;0.90;;;17.90;99.90;;;;;;5115502;28;20453;-70
2022/06/16 04:18:49;;;;;;;0.57;0.57;;;17.90;99.90;;;;;;5115834;28;20402;-69
2022/06/16 04:21:15;;;;;;;0.50;0.50;;;18.00;99.90;;;;;;5115471;28;20792;-70
2022/06/16 04:23:40;;;;;;;0.57;0.57;;;18.10;99.90;;;;;;5115208;28;20492;-70
2022/06/16 04:26:07;;;;;;;0.30;0.30;;;18.30;99.90;;;;;;5115331;28;20314;-71
2022/06/16 04:28:32;;;;;;;0.30;0.30;;;18.70;99.90;;;;;;5115406;28;20184;-70
2022/06/16 04:30:59;;;;;;;0.30;0.30;;;19.10;99.90;;;;;;5115146;28;20399;-70
2022/06/16 04:33:25;;;;;;;0.30;0.30;;;19.50;99.90;;;;;;5114954;28;20195;-70
2022/06/16 04:35:51;;;;;;;0.50;0.50;;;19.80;99.90;;;;;;5115031;28;20456;-70
2022/06/16 04:38:17;;;;;;;0.30;0.30;;;20.10;99.90;;;;;;5115271;28;20309;-70
2022/06/16 04:40:43;;;;;;;0.97;0.70;;;20.40;99.90;;;;;;5115108;28;20409;-70
2022/06/16 04:43:09;;;;;;;0.30;0.30;;;20.60;99.90;;;;;;5114806;28;20429;-70
2022/06/16 04:45:34;;;;;;;1.03;0.77;;;20.70;99.90;;;;;;5115108;27;20732;-70
2022/06/16 04:48:00;;;;;;;0.47;0.47;;;20.90;99.90;;;;;;5114933;28;20402;-70
2022/06/16 04:50:26;;;;;;;1.03;1.03;;;21.10;99.90;;;;;;5114891;28;20214;-71
2022/06/16 04:52:51;;;;;;;0.53;0.53;;;21.40;99.90;;;;;;5114594;28;20166;-71
2022/06/16 04:55:17;;;;;;;1.63;0.50;;;21.70;99.90;;;;;;5114839;28;20258;-70
2022/06/16 04:57:43;;;;;;;0.40;0.40;;;22.00;99.30;;;;;;5114829;28;20168;-69
2022/06/16 05:00:13;;;;;;;0.30;0.30;;;22.10;98.80;;;;;;5114638;28;20223;-70
2022/06/16 05:02:39;;;;;;;0.30;0.30;;;22.10;98.90;;;;;;5114442;28;20458;-71
2022/06/16 05:05:05;;;;;;;0.80;0.73;;;22.30;99.10;;;;;;5113587;28;20425;-70
2022/06/16 05:07:31;;;;;;;0.67;0.67;;;22.30;98.80;;;;;;5114587;28;20194;-71
2022/06/16 05:09:56;;;;;;;0.60;0.53;;;22.20;98.60;;;;;;5114667;28;20939;-70
2022/06/16 05:12:22;;;;;;;0.30;0.30;;;21.90;98.30;;;;;;5114407;28;20519;-71
2022/06/16 05:14:48;;;;;;;0.30;0.30;;;21.70;98.70;;;;;;5114247;28;20204;-71
2022/06/16 05:17:13;;;;;;;0.40;0.40;;;21.60;99.00;;;;;;5114418;28;20172;-71
2022/06/16 05:19:39;;;;;;;0.30;0.30;;;21.70;99.40;;;;;;5114542;28;20170;-70
2022/06/16 05:22:05;;;;;;;0.40;0.40;;;22.00;99.70;;;;;;5114139;28;20203;-71
2022/06/16 05:24:32;;;;;;;0.40;0.40;;;22.30;99.50;;;;;;5114285;28;20191;-70
2022/06/16 05:27:00;;;;;;;0.40;0.40;;;22.70;98.90;;;;;;5114205;28;20376;-70
2022/06/16 05:29:26;;;;;;;0.40;0.40;;;22.90;98.30;;;;;;5114175;28;20401;-71
2022/06/16 05:31:52;;;;;;;0.50;0.50;;;22.80;97.70;;;;;;5114249;28;20402;-70
2022/06/16 05:34:18;;;;;;;0.47;0.47;;;22.60;98.30;;;;;;5113944;28;20446;-70
2022/06/16 05:36:45;;;;;;;0.40;0.40;;;22.50;98.70;;;;;;5114144;28;20198;-71
2022/06/16 05:39:12;;;;;;;0.30;0.30;;;22.50;98.60;;;;;;5114245;28;20175;-71
2022/06/16 05:41:38;;;;;;;0.97;0.97;;;22.30;98.50;;;;;;5113985;28;20989;-71
2022/06/16 05:44:05;;;;;;;0.60;0.60;;;22.10;99.40;;;;;;5113772;28;20215;-70
2022/06/16 05:46:30;;;;;;;0.30;0.30;;;22.00;99.90;;;;;;5114037;28;20408;-70
2022/06/16 05:48:56;;;;;;;0.77;0.50;;;22.20;99.30;;;;;;5114120;28;20396;-70
2022/06/16 05:51:23;;;;;;;0.67;0.67;;;22.50;98.90;;;;;;5114070;28;20258;-71
2022/06/16 05:53:50;;;;;;;0.30;0.30;;;22.80;98.50;;;;;;5113701;28;20191;-71
2022/06/16 05:56:16;;;;;;;0.30;0.30;;;23.20;97.60;;;;;;5113833;28;20454;-70
2022/06/16 05:58:42;;;;;;;0.30;0.30;;;23.60;97.40;;;;;;5113921;28;20860;-70
2022/06/16 06:01:10;;;;;;;0.50;0.50;;;23.80;96.70;;;;;;5113934;28;20463;-70
2022/06/16 06:03:38;;;;;;;0.40;0.40;;;24.20;96.30;;;;;;5113823;28;20187;-71
2022/06/16 06:06:04;;;;;;;1.57;1.47;;;24.60;94.60;;;;;;5113751;28;20380;-70
2022/06/16 06:16:54;;;;;;;0.40;0.40;;;26.50;92.50;;;;;;5116135;28;20376;-71
2022/06/16 06:19:26;;;;;;;0.30;0.30;;;27.60;90.20;;;;;;5118261;28;20451;-72
2022/06/16 06:22:00;;;;;;;1.13;1.07;;;28.30;85.80;;;;;;5117874;28;20403;-71
2022/06/16 06:24:47;;;;;;;0.50;0.50;;;28.50;86.00;;;;;;5117745;28;20425;-71
2022/06/16 06:27:17;;;;;;;0.30;0.30;;;28.00;84.50;;;;;;5117625;28;20410;-71
2022/06/16 06:29:45;;;;;;;0.50;0.50;;;27.80;87.20;;;;;;5117598;28;20481;-70
2022/06/16 06:32:12;;;;;;;0.30;0.30;;;28.40;86.80;;;;;;5117413;28;20390;-72
2022/06/16 06:34:38;;;;;;;0.30;0.30;;;29.20;82.20;;;;;;5117327;28;20414;-70
2022/06/16 06:37:05;;;;;;;0.70;0.70;;;28.80;81.10;;;;;;5117580;28;20405;-71
2022/06/16 06:39:30;;;;;;;0.60;0.60;;;28.90;81.60;;;;;;5117592;28;20921;-71
2022/06/16 06:41:56;;;;;;;0.40;0.40;;;29.40;81.80;;;;;;5117439;28;20406;-71
2022/06/16 06:44:22;;;;;;;0.60;0.60;;;30.60;77.60;;;;;;5116992;28;20192;-71
2022/06/16 06:46:47;;;;;;;0.60;0.60;;;31.50;73.50;;;;;;5117492;28;20656;-71
2022/06/16 06:49:13;;;;;;;0.50;0.47;;;32.60;68.70;;;;;;5117260;28;20172;-71
2022/06/16 06:51:39;;;;;;;0.50;0.50;;;33.70;67.20;;;;;;5117373;28;20168;-72
2022/06/16 06:54:05;;;;;;;0.90;0.73;;;34.50;63.50;;;;;;5116965;28;20196;-71
2022/06/16 06:56:32;;;;;;;0.50;0.50;;;35.80;59.80;;;;;;5117379;28;20458;-71
2022/06/16 06:59:01;;;;;;;1.40;0.43;;;36.80;55.90;;;;;;5116906;28;20170;-70
2022/06/16 07:01:27;;;;;;;0.30;0.30;;;37.30;51.40;;;;;;5117002;28;20390;-68
2022/06/16 07:03:53;;;;;;;0.40;0.40;;;37.20;51.60;;;;;;5116638;28;20991;-70
2022/06/16 07:06:19;;;;;;;0.70;0.70;;;36.30;50.80;;;;;;5116947;28;20210;-69
2022/06/16 07:08:45;;;;;;;0.50;0.50;;;35.70;52.70;;;;;;5117011;28;20208;-69
2022/06/16 07:11:12;;;;;;;0.60;0.50;;;35.90;52.60;;;;;;5116838;28;20523;-70
2022/06/16 07:13:38;;;;;;;0.40;0.40;;;36.40;51.80;;;;;;5116436;27;20437;-69
2022/06/16 07:16:04;;;;;;;0.30;0.30;;;36.30;49.60;;;;;;5116559;28;20446;-69
2022/06/16 07:18:30;;;;;;;0.40;0.40;;;36.80;51.30;;;;;;5116767;28;20176;-69
2022/06/16 07:20:55;;;;;;;0.77;0.70;;;36.40;49.60;;;;;;5116687;28;20405;-68
2022/06/16 07:23:21;;;;;;;0.40;0.30;;;36.70;50.70;;;;;;5116178;28;20601;-68
2022/06/16 07:25:50;;;;;;;0.30;0.30;;;37.00;50.00;;;;;;5116389;28;20199;-70
2022/06/16 07:28:17;;;;;;;0.40;0.40;;;37.30;49.80;;;;;;5115821;28;20408;-70
2022/06/16 07:30:43;;;;;;;1.30;1.30;;;37.50;48.40;;;;;;5116359;28;20406;-69
2022/06/16 07:33:09;;;;;;;0.30;0.30;;;37.60;49.10;;;;;;5116117;28;20477;-69
2022/06/16 07:35:36;;;;;;;0.77;0.67;;;36.90;47.50;;;;;;5116222;28;20449;-69
2022/06/16 07:38:02;;;;;;;0.67;0.67;;;36.10;50.60;;;;;;5116893;28;20394;-69
2022/06/16 07:40:28;;;;;;;0.73;0.73;;;36.90;50.20;;;;;;5116134;28;20400;-68
2022/06/16 07:42:56;;;;;;;0.60;0.60;;;37.40;48.60;;;;;;5115919;28;20394;-68
2022/06/16 07:45:24;;;;;;;0.40;0.40;;;36.90;47.50;;;;;;5116251;28;20910;-69
2022/06/16 07:47:50;;;;;;;0.77;0.77;;;37.20;47.70;;;;;;5116008;28;20406;-69
2022/06/16 07:50:16;;;;;;;0.70;0.57;;;36.90;47.40;;;;;;5116171;28;20936;-69
2022/06/16 07:52:41;;;;;;;7.40;0.60;;;37.80;48.00;;;;;;5115895;28;20410;-70
2022/06/16 07:55:09;;;;;;;0.40;0.30;;;38.80;46.90;;;;;;5115787;28;20554;-69
2022/06/16 07:57:41;;;;;;;0.97;0.97;;;38.50;45.50;;;;;;5114936;28;20180;-69
2022/06/16 08:00:07;;;;;;;1.03;0.93;;;38.20;44.50;;;;;;5115875;28;20447;-70
2022/06/16 08:02:33;;;;;;;0.50;0.50;;;38.70;46.40;;;;;;5115637;28;21046;-68
2022/06/16 08:04:58;;;;;;;1.67;1.57;;;38.90;45.00;;;;;;5116382;28;20525;-70
2022/06/16 08:07:24;;;;;;;0.70;0.70;;;39.40;44.30;;;;;;5115622;28;20170;-70
2022/06/16 08:09:50;;;;;;;0.40;0.40;;;39.60;43.50;;;;;;5115749;28;20643;-69
2022/06/16 08:12:15;;;;;;;1.27;0.60;;;38.50;43.50;;;;;;5115510;28;20575;-68
2022/06/16 08:14:44;;;;;;;0.40;0.30;;;37.90;46.00;;;;;;5115482;28;20199;-69
2022/06/16 08:17:32;;;;;;;0.70;0.70;;;38.20;45.80;;;;;;5115748;28;20172;-69
2022/06/16 08:19:58;;;;;;;0.40;0.30;;;38.60;45.20;;;;;;5115762;27;20898;-70
2022/06/16 08:22:25;;;;;;;1.00;1.00;;;39.10;43.70;;;;;;5115292;28;20797;-69
2022/06/16 08:24:51;;;;;;;0.57;0.57;;;39.40;44.20;;;;;;5115292;28;20457;-70
2022/06/16 08:27:19;;;;;;;0.40;0.40;;;39.50;44.30;;;;;;5115419;28;20432;-70
2022/06/16 08:29:46;;;;;;;0.57;0.57;;;39.50;43.50;;;;;;5115424;28;20203;-70
2022/06/16 08:32:16;;;;;;;0.60;0.60;;;38.60;44.10;;;;;;5114963;28;20398;-69
2022/06/16 08:34:42;;;;;;;0.70;0.50;;;38.20;45.80;;;;;;5114917;28;20421;-69
2022/06/16 08:37:08;;;;;;;1.20;1.10;;;37.60;45.60;;;;;;5115151;28;20413;-70
2022/06/16 08:39:33;;;;;;;1.33;0.87;;;38.20;47.30;;;;;;5114973;28;20172;-70
2022/06/16 08:42:18;;;;;;;1.00;0.90;;;38.90;45.40;;;;;;5115214;28;20397;-68
2022/06/16 08:45:01;;;;;;;1.43;1.43;;;38.30;45.30;;;;;;5114927;28;20180;-68
2022/06/16 08:47:47;;;;;;;0.40;0.40;;;38.40;43.40;;;;;;5115132;28;20405;-69
2022/06/16 08:50:33;;;;;;;0.40;0.40;;;39.30;42.90;;;;;;5093396;28;20417;-71
2022/06/16 08:53:17;;;;;;;0.57;0.57;;;40.00;40.50;;;;;;5114632;28;20454;-69
2022/06/16 08:56:04;;;;;;;0.57;0.40;;;40.40;40.90;;;;;;5114715;28;20506;-70
2022/06/16 08:59:12;;;;;;;0.40;0.40;;;40.20;38.50;;;;;;5114826;28;20489;-68
2022/06/16 09:01:51;;;;;;;0.90;0.90;;;39.70;36.70;;;;;;5114664;28;20394;-69
2022/06/16 09:04:27;;;;;;;0.70;0.70;;;38.50;38.70;;;;;;5114426;28;20410;-67
2022/06/16 09:07:05;;;;;;;0.40;0.30;;;38.40;40.10;;;;;;5114672;28;20397;-70
2022/06/16 09:12:36;;;;;;;0.40;0.30;;;38.40;37.90;;;;;;5114503;28;20446;-68
2022/06/16 09:15:20;;;;;;;0.50;0.40;;;38.40;37.40;;;;;;5114444;28;20540;-70
2022/06/16 09:18:17;;;;;;;0.53;0.53;;;39.40;37.00;;;;;;5114427;28;20485;-69
2022/06/16 09:20:42;;;;;;;0.43;0.43;;;39.50;36.40;;;;;;5114664;28;20484;-70
2022/06/16 09:23:40;;;;;;;0.43;0.40;;;39.40;35.50;;;;;;5113879;28;20500;-69
2022/06/16 09:26:21;;;;;;;0.30;0.30;;;39.60;37.80;;;;;;5114258;28;20537;-69
2022/06/16 09:28:54;;;;;;;0.40;0.40;;;38.50;35.70;;;;;;5114142;28;20406;-70
2022/06/16 09:31:27;;;;;;;0.40;0.30;;;38.00;36.70;;;;;;5114374;28;20404;-71
2022/06/16 09:34:08;;;;;;;0.40;0.30;;;37.60;37.60;;;;;;5113968;28;20796;-70
2022/06/16 09:36:40;;;;;;;0.40;0.40;;;37.90;36.20;;;;;;5114041;28;20582;-71
2022/06/16 09:39:09;;;;;;;0.70;0.70;;;37.90;37.70;;;;;;5114523;28;20755;-70
2022/06/16 09:44:36;;;;;;;0.37;0.30;;;37.50;37.00;;;;;;5114355;28;20558;-70
2022/06/16 09:47:07;;;;;;;0.67;0.63;;;38.00;35.40;;;;;;5114274;28;20901;-71
2022/06/16 09:49:57;;;;;;;0.77;0.70;;;37.70;34.10;;;;;;5114167;28;20417;-70
2022/06/16 09:53:02;;;;;;;0.53;0.53;;;37.30;35.00;;;;;;5113261;28;20429;-71
2022/06/16 09:55:41;;;;;;;0.40;0.40;;;37.80;34.50;;;;;;5113719;28;20441;-70
2022/06/16 09:58:33;;;;;;;0.53;0.50;;;37.90;34.80;;;;;;5114262;28;20401;-71
2022/06/16 10:01:05;;;;;;;0.50;0.50;;;37.40;34.80;;;;;;5114109;28;20893;-71
2022/06/16 10:03:36;;;;;;;0.40;0.40;;;37.20;36.00;;;;;;5113710;28;20518;-70
2022/06/16 10:06:18;;;;;;;0.50;0.50;;;36.60;36.50;;;;;;5113722;28;20402;-71
2022/06/16 10:09:03;;;;;;;0.40;0.40;;;36.40;35.90;;;;;;5114160;28;20405;-70
2022/06/16 10:11:57;;;;;;;1.47;0.40;;;35.80;37.70;;;;;;5113890;28;20901;-71
2022/06/16 10:14:32;;;;;;;0.40;0.30;;;35.60;36.90;;;;;;5113504;28;20418;-70
2022/06/16 10:17:02;;;;;;;0.40;0.40;;;35.60;38.90;;;;;;5113983;28;20451;-72
2022/06/16 10:19:32;;;;;;;0.50;0.50;;;35.90;39.30;;;;;;5113649;28;20403;-70
2022/06/16 10:21:59;;;;;;;0.50;0.50;;;36.00;36.50;;;;;;5113635;28;20481;-70
2022/06/16 10:24:32;;;;;;;0.40;0.40;;;36.00;38.60;;;;;;5113637;28;20478;-71
2022/06/16 10:26:58;;;;;;;0.90;0.83;;;35.70;38.50;;;;;;5113614;28;20386;-70
2022/06/16 10:29:30;;;;;;;0.50;0.47;;;35.70;40.30;;;;;;5113586;28;20398;-71
2022/06/16 10:31:58;;;;;;;1.00;0.90;;;35.90;36.70;;;;;;5113741;28;20413;-69
2022/06/16 10:34:35;;;;;;;0.60;0.60;;;35.90;41.10;;;;;;5113337;28;20777;-71
2022/06/16 10:37:18;;;;;;;0.97;0.80;;;35.90;39.90;;;;;;5113776;28;20788;-70
2022/06/16 10:39:49;;;;;;;0.40;0.40;;;35.90;38.40;;;;;;5113819;28;20913;-71
2022/06/16 10:42:27;;;;;;;0.30;0.30;;;35.30;35.40;;;;;;5113564;28;20410;-71
2022/06/16 10:45:14;;;;;;;0.30;0.30;;;34.40;43.70;;;;;;5113613;28;20426;-71
2022/06/16 10:47:50;;;;;;;0.40;0.40;;;34.00;40.10;;;;;;5113630;28;20406;-70
2022/06/16 10:50:23;;;;;;;0.33;0.30;;;33.60;38.30;;;;;;5113510;28;20501;-71
2022/06/16 10:53:14;;;;;;;0.30;0.30;;;33.70;42.00;;;;;;5113393;28;20849;-70
2022/06/16 10:55:45;;;;;;;0.60;0.60;;;33.10;39.20;;;;;;5113440;28;20536;-71
2022/06/16 10:58:26;;;;;;;0.30;0.30;;;32.40;43.30;;;;;;5113486;28;20401;-71
2022/06/16 11:01:24;;;;;;;0.70;0.70;;;31.80;41.90;;;;;;5113529;28;20799;-71
2022/06/16 11:04:07;;;;;;;0.40;0.40;;;31.30;40.90;;;;;;5113866;28;20434;-70
2022/06/16 11:06:33;;;;;;;1.80;0.90;;;30.80;42.20;;;;;;5116938;28;20390;-70
2022/06/16 11:09:05;;;;;;;0.30;0.30;;;30.80;43.60;;;;;;5117276;28;20405;-71
2022/06/16 11:11:43;;;;;;;0.30;0.30;;;30.70;44.90;;;;;;5117074;28;20398;-71
2022/06/16 11:14:18;;;;;;;0.40;0.40;;;30.80;43.20;;;;;;5116766;28;20425;-70
2022/06/16 11:16:55;;;;;;;0.60;0.60;;;30.80;42.50;;;;;;5116641;28;20524;-71
2022/06/16 11:19:28;;;;;;;0.80;0.80;;;30.70;44.70;;;;;;5116848;28;20401;-71
2022/06/16 11:21:54;;;;;;;0.30;0.30;;;30.60;42.90;;;;;;5116985;28;20387;-71
2022/06/16 11:24:31;;;;;;;0.97;0.97;;;30.40;46.30;;;;;;5116395;28;20421;-71
2022/06/16 11:27:11;;;;;;;1.27;0.80;;;30.40;44.40;;;;;;5116733;28;20480;-71
2022/06/16 11:29:38;;;;;;;0.90;0.90;;;30.40;44.40;;;;;;5116702;27;20412;-71
2022/06/16 11:32:20;;;;;;;0.40;0.40;;;30.30;42.00;;;;;;5116249;28;20406;-70
2022/06/16 11:34:47;;;;;;;0.30;0.30;;;30.10;45.30;;;;;;5116452;28;20942;-71
2022/06/16 11:37:16;;;;;;;0.40;0.40;;;30.10;44.90;;;;;;5116300;28;20450;-70
2022/06/16 11:39:44;;;;;;;0.40;0.40;;;30.10;43.70;;;;;;5116400;28;20724;-71
2022/06/16 11:42:38;;;;;;;0.40;0.40;;;29.90;43.30;;;;;;5116033;28;20395;-70
2022/06/16 11:45:30;;;;;;;0.40;0.40;;;29.90;45.10;;;;;;5116077;28;20424;-72
2022/06/16 11:48:32;;;;;;;0.40;0.40;;;29.80;43.30;;;;;;5114043;28;20406;-70
2022/06/16 11:51:05;;;;;;;0.30;0.30;;;29.70;43.60;;;;;;5116115;28;20860;-69
2022/06/16 11:53:33;;;;;;;0.30;0.30;;;29.70;43.40;;;;;;5115923;28;20413;-71
2022/06/16 11:56:20;;;;;;;0.30;0.30;;;29.70;43.80;;;;;;5115927;28;20434;-70
2022/06/16 11:59:16;;;;;;;0.50;0.50;;;29.70;44.90;;;;;;5116141;28;20398;-70
2022/06/16 12:01:48;;;;;;;0.77;0.77;;;29.50;45.60;;;;;;5116125;28;20387;-71
2022/06/16 12:04:28;;;;;;;0.43;0.43;;;29.40;44.90;;;;;;5115667;28;20837;-70
2022/06/16 12:07:18;;;;;;;0.37;0.30;;;29.40;46.80;;;;;;5115718;28;20395;-71
2022/06/16 12:10:08;;;;;;;0.60;0.60;;;29.50;46.80;;;;;;5116061;28;20394;-71
2022/06/16 12:13:01;;;;;;;0.50;0.50;;;29.40;44.90;;;;;;5115399;28;20402;-70
2022/06/16 12:15:34;;;;;;;0.50;0.50;;;29.40;44.40;;;;;;5115043;28;20489;-71
2022/06/16 12:18:30;;;;;;;0.50;0.47;;;29.10;43.40;;;;;;5115568;28;20394;-70
2022/06/16 12:21:25;;;;;;;0.97;0.97;;;29.20;46.20;;;;;;5115691;28;20394;-71
2022/06/16 12:23:53;;;;;;;0.30;0.30;;;29.30;48.70;;;;;;5114949;28;20437;-71
2022/06/16 12:26:29;;;;;;;0.30;0.30;;;29.10;43.80;;;;;;5115018;28;20890;-70
2022/06/16 12:29:05;;;;;;;0.50;0.50;;;29.20;47.00;;;;;;5115158;28;20904;-71
2022/06/16 12:31:36;;;;;;;0.53;0.53;;;29.40;44.30;;;;;;5114743;28;20401;-71
2022/06/16 12:34:12;;;;;;;0.53;0.53;;;29.40;42.70;;;;;;5114239;28;21012;-70
2022/06/16 12:36:51;;;;;;;0.30;0.30;;;29.40;46.10;;;;;;5114710;27;20445;-70
2022/06/16 12:39:24;;;;;;;0.70;0.50;;;29.50;46.30;;;;;;5115137;28;20887;-69
2022/06/16 12:41:54;;;;;;;0.40;0.40;;;29.50;46.20;;;;;;5114755;28;20398;-71
2022/06/16 12:44:35;;;;;;;0.40;0.40;;;29.60;46.60;;;;;;5114241;28;21013;-71
2022/06/16 12:47:10;;;;;;;0.40;0.40;;;29.60;44.50;;;;;;5114295;28;20472;-71
2022/06/16 12:50:28;;;;;;;0.40;0.40;;;29.60;48.30;;;;;;5114254;28;20408;-70
2022/06/16 12:53:20;;;;;;;0.30;0.30;;;29.40;45.80;;;;;;5110460;28;20418;-71
2022/06/16 12:56:03;;;;;;;0.40;0.40;;;29.20;43.60;;;;;;5114431;28;20432;-70
2022/06/16 12:58:51;;;;;;;0.43;0.43;;;29.10;43.40;;;;;;5114715;28;20500;-71
2022/06/16 13:01:18;;;;;;;0.40;0.40;;;29.20;46.00;;;;;;5107794;28;20414;-70
2022/06/16 13:03:43;;;;;;;0.40;0.40;;;29.30;44.60;;;;;;5114703;28;20422;-71
2022/06/16 13:06:11;;;;;;;0.90;0.37;;;29.10;45.20;;;;;;5114669;28;20405;-70
2022/06/16 13:08:41;;;;;;;1.13;0.60;;;29.10;45.50;;;;;;5113410;28;20176;-70
2022/06/16 13:11:12;;;;;;;0.60;0.40;;;28.90;46.80;;;;;;5114793;28;20390;-71
2022/06/16 13:13:45;;;;;;;0.37;0.37;;;28.70;46.80;;;;;;5114286;28;20475;-70
2022/06/16 13:16:16;;;;;;;0.53;0.53;;;28.60;46.60;;;;;;5114356;28;20498;-71
2022/06/16 13:18:46;;;;;;;0.50;0.47;;;28.60;47.40;;;;;;5114464;28;20404;-70
2022/06/16 13:21:23;;;;;;;0.47;0.47;;;28.80;47.80;;;;;;5114541;28;20402;-71
2022/06/16 13:23:55;;;;;;;0.60;0.60;;;28.70;46.90;;;;;;5113984;28;20450;-70
2022/06/16 13:26:26;;;;;;;0.60;0.60;;;28.60;47.20;;;;;;5113775;28;20753;-70
2022/06/16 13:29:18;;;;;;;0.40;0.40;;;28.40;48.30;;;;;;5114497;28;20422;-70
2022/06/16 13:32:10;;;;;;;2.57;1.60;;;28.40;49.10;;;;;;5114391;28;20443;-71
2022/06/16 13:34:38;;;;;;;0.60;0.60;;;28.10;48.00;;;;;;5097846;28;20445;-71
2022/06/16 13:37:04;;;;;;;0.80;0.80;;;28.20;47.70;;;;;;5114067;28;20532;-70